sensor_id;sensor_type;location;lat;lon;timestamp;P1;P2;P0
42410;PMS5003;28056;51.112;0.984;2023-03-29T00:04:52;12;8;
42410;PMS5003;28056;51.112;0.984;2023-03-29T00:07:19;11;11;
42410;PMS5003;28056;51.112;0.984;2023-03-29T00:09:46;9;9;
42410;PMS5003;28056;51.112;0.984;2023-03-29T00:12:14;9;8;
42410;PMS5003;28056;51.112;0.984;2023-03-29T00:14:41;11;9;
42410;PMS5003;28056;51.112;0.984;2023-03-29T00:17:08;11;11;
42410;PMS5003;28056;51.112;0.984;2023-03-29T00:19:35;12;12;
42410;PMS5003;28056;51.112;0.984;2023-03-29T00:22:02;13;12;
42410;PMS5003;28056;51.112;0.984;2023-03-29T00:24:30;13;12;
42410;PMS5003;28056;51.112;0.984;2023-03-29T00:26:57;9;9;
42410;PMS5003;28056;51.112;0.984;2023-03-29T00:29:25;16;12;
42410;PMS5003;28056;51.112;0.984;2023-03-29T00:31:52;16;12;
42410;PMS5003;28056;51.112;0.984;2023-03-29T00:34:20;13;11;
42410;PMS5003;28056;51.112;0.984;2023-03-29T00:36:47;22;16;
42410;PMS5003;28056;51.112;0.984;2023-03-29T00:39:15;20;16;
42410;PMS5003;28056;51.112;0.984;2023-03-29T00:41:43;15;15;
42410;PMS5003;28056;51.112;0.984;2023-03-29T00:44:51;17;16;
42410;PMS5003;28056;51.112;0.984;2023-03-29T00:47:23;17;16;
42410;PMS5003;28056;51.112;0.984;2023-03-29T00:49:53;23;18;
42410;PMS5003;28056;51.112;0.984;2023-03-29T00:52:22;19;19;
42410;PMS5003;28056;51.112;0.984;2023-03-29T00:54:51;23;18;
42410;PMS5003;28056;51.112;0.984;2023-03-29T00:57:22;21;17;
42410;PMS5003;28056;51.112;0.984;2023-03-29T00:59:52;19;19;
42410;PMS5003;28056;51.112;0.984;2023-03-29T01:02:22;17;17;
42410;PMS5003;28056;51.112;0.984;2023-03-29T01:04:54;22;19;
42410;PMS5003;28056;51.112;0.984;2023-03-29T01:07:24;25;19;
42410;PMS5003;28056;51.112;0.984;2023-03-29T01:09:58;25;20;
42410;PMS5003;28056;51.112;0.984;2023-03-29T01:12:32;24;18;
42410;PMS5003;28056;51.112;0.984;2023-03-29T01:15:04;23;21;
42410;PMS5003;28056;51.112;0.984;2023-03-29T01:17:35;18;18;
42410;PMS5003;28056;51.112;0.984;2023-03-29T01:20:10;18;17;
42410;PMS5003;28056;51.112;0.984;2023-03-29T01:22:45;23;18;
42410;PMS5003;28056;51.112;0.984;2023-03-29T01:25:25;28;22;
42410;PMS5003;28056;51.112;0.984;2023-03-29T01:27:58;23;19;
42410;PMS5003;28056;51.112;0.984;2023-03-29T01:30:30;22;20;
42410;PMS5003;28056;51.112;0.984;2023-03-29T01:33:04;23;23;
42410;PMS5003;28056;51.112;0.984;2023-03-29T01:35:37;19;17;
42410;PMS5003;28056;51.112;0.984;2023-03-29T01:38:09;23;20;
42410;PMS5003;28056;51.112;0.984;2023-03-29T01:40:40;22;19;
42410;PMS5003;28056;51.112;0.984;2023-03-29T01:43:10;25;18;
42410;PMS5003;28056;51.112;0.984;2023-03-29T01:45:44;22;22;
42410;PMS5003;28056;51.112;0.984;2023-03-29T01:48:18;19;19;
42410;PMS5003;28056;51.112;0.984;2023-03-29T01:50:52;27;23;
42410;PMS5003;28056;51.112;0.984;2023-03-29T01:53:25;27;23;
42410;PMS5003;28056;51.112;0.984;2023-03-29T01:55:58;27;23;
42410;PMS5003;28056;51.112;0.984;2023-03-29T01:58:30;37;25;
42410;PMS5003;28056;51.112;0.984;2023-03-29T02:01:04;24;23;
42410;PMS5003;28056;51.112;0.984;2023-03-29T02:03:34;24;22;
42410;PMS5003;28056;51.112;0.984;2023-03-29T02:06:05;33;25;
42410;PMS5003;28056;51.112;0.984;2023-03-29T02:08:33;28;24;
42410;PMS5003;28056;51.112;0.984;2023-03-29T02:11:00;29;29;
42410;PMS5003;28056;51.112;0.984;2023-03-29T02:13:28;28;25;
42410;PMS5003;28056;51.112;0.984;2023-03-29T02:15:56;27;23;
42410;PMS5003;28056;51.112;0.984;2023-03-29T02:18:23;32;26;
42410;PMS5003;28056;51.112;0.984;2023-03-29T02:20:51;28;24;
42410;PMS5003;28056;51.112;0.984;2023-03-29T02:23:21;29;27;
42410;PMS5003;28056;51.112;0.984;2023-03-29T02:25:53;27;23;
42410;PMS5003;28056;51.112;0.984;2023-03-29T02:28:21;31;29;
42410;PMS5003;28056;51.112;0.984;2023-03-29T02:30:52;26;24;
42410;PMS5003;28056;51.112;0.984;2023-03-29T02:33:29;23;23;
42410;PMS5003;28056;51.112;0.984;2023-03-29T02:36:03;23;22;
42410;PMS5003;28056;51.112;0.984;2023-03-29T02:38:35;31;26;
42410;PMS5003;28056;51.112;0.984;2023-03-29T02:41:03;31;27;
42410;PMS5003;28056;51.112;0.984;2023-03-29T02:43:31;29;29;
42410;PMS5003;28056;51.112;0.984;2023-03-29T02:46:01;28;28;
42410;PMS5003;28056;51.112;0.984;2023-03-29T02:48:30;33;30;
42410;PMS5003;28056;51.112;0.984;2023-03-29T02:51:00;40;36;
42410;PMS5003;28056;51.112;0.984;2023-03-29T02:53:36;40;38;
42410;PMS5003;28056;51.112;0.984;2023-03-29T02:56:09;36;31;
42410;PMS5003;28056;51.112;0.984;2023-03-29T02:58:37;35;34;
42410;PMS5003;28056;51.112;0.984;2023-03-29T03:01:04;34;33;
42410;PMS5003;28056;51.112;0.984;2023-03-29T03:03:33;38;35;
42410;PMS5003;28056;51.112;0.984;2023-03-29T03:06:01;41;34;
42410;PMS5003;28056;51.112;0.984;2023-03-29T03:08:28;31;31;
42410;PMS5003;28056;51.112;0.984;2023-03-29T03:10:55;36;30;
42410;PMS5003;28056;51.112;0.984;2023-03-29T03:13:23;39;36;
42410;PMS5003;28056;51.112;0.984;2023-03-29T03:15:51;32;30;
42410;PMS5003;28056;51.112;0.984;2023-03-29T03:18:19;34;30;
42410;PMS5003;28056;51.112;0.984;2023-03-29T03:20:53;31;30;
42410;PMS5003;28056;51.112;0.984;2023-03-29T03:23:21;37;30;
42410;PMS5003;28056;51.112;0.984;2023-03-29T03:25:49;33;30;
42410;PMS5003;28056;51.112;0.984;2023-03-29T03:28:16;35;31;
42410;PMS5003;28056;51.112;0.984;2023-03-29T03:30:44;32;26;
42410;PMS5003;28056;51.112;0.984;2023-03-29T03:33:12;26;24;
42410;PMS5003;28056;51.112;0.984;2023-03-29T03:35:39;25;25;
42410;PMS5003;28056;51.112;0.984;2023-03-29T03:38:06;33;29;
42410;PMS5003;28056;51.112;0.984;2023-03-29T03:40:34;35;31;
42410;PMS5003;28056;51.112;0.984;2023-03-29T03:43:02;25;24;
42410;PMS5003;28056;51.112;0.984;2023-03-29T03:45:29;32;30;
42410;PMS5003;28056;51.112;0.984;2023-03-29T03:47:56;28;28;
42410;PMS5003;28056;51.112;0.984;2023-03-29T03:50:23;30;26;
42410;PMS5003;28056;51.112;0.984;2023-03-29T03:52:50;25;23;
42410;PMS5003;28056;51.112;0.984;2023-03-29T03:55:18;25;25;
42410;PMS5003;28056;51.112;0.984;2023-03-29T03:57:46;30;24;
42410;PMS5003;28056;51.112;0.984;2023-03-29T04:00:14;25;21;
42410;PMS5003;28056;51.112;0.984;2023-03-29T04:02:41;27;24;
42410;PMS5003;28056;51.112;0.984;2023-03-29T04:05:08;19;19;
42410;PMS5003;28056;51.112;0.984;2023-03-29T04:07:36;18;18;
42410;PMS5003;28056;51.112;0.984;2023-03-29T04:10:04;19;19;
42410;PMS5003;28056;51.112;0.984;2023-03-29T04:12:32;25;18;
42410;PMS5003;28056;51.112;0.984;2023-03-29T04:15:00;28;26;
42410;PMS5003;28056;51.112;0.984;2023-03-29T04:17:27;20;18;
42410;PMS5003;28056;51.112;0.984;2023-03-29T04:19:54;17;17;
42410;PMS5003;28056;51.112;0.984;2023-03-29T04:22:21;14;13;
42410;PMS5003;28056;51.112;0.984;2023-03-29T04:24:49;18;14;
42410;PMS5003;28056;51.112;0.984;2023-03-29T04:27:16;21;18;
42410;PMS5003;28056;51.112;0.984;2023-03-29T04:29:44;23;18;
42410;PMS5003;28056;51.112;0.984;2023-03-29T04:32:11;20;19;
42410;PMS5003;28056;51.112;0.984;2023-03-29T04:34:38;21;18;
42410;PMS5003;28056;51.112;0.984;2023-03-29T04:37:06;18;14;
42410;PMS5003;28056;51.112;0.984;2023-03-29T04:39:34;18;15;
42410;PMS5003;28056;51.112;0.984;2023-03-29T04:42:02;24;20;
42410;PMS5003;28056;51.112;0.984;2023-03-29T04:44:30;20;17;
42410;PMS5003;28056;51.112;0.984;2023-03-29T04:46:58;18;12;
42410;PMS5003;28056;51.112;0.984;2023-03-29T04:49:25;20;18;
42410;PMS5003;28056;51.112;0.984;2023-03-29T04:51:52;19;15;
42410;PMS5003;28056;51.112;0.984;2023-03-29T04:54:20;14;14;
42410;PMS5003;28056;51.112;0.984;2023-03-29T04:56:47;21;17;
42410;PMS5003;28056;51.112;0.984;2023-03-29T04:59:15;22;18;
42410;PMS5003;28056;51.112;0.984;2023-03-29T05:01:42;24;20;
42410;PMS5003;28056;51.112;0.984;2023-03-29T05:04:10;13;13;
42410;PMS5003;28056;51.112;0.984;2023-03-29T05:06:37;14;13;
42410;PMS5003;28056;51.112;0.984;2023-03-29T05:09:05;19;15;
42410;PMS5003;28056;51.112;0.984;2023-03-29T05:11:33;18;18;
42410;PMS5003;28056;51.112;0.984;2023-03-29T05:14:01;18;18;
42410;PMS5003;28056;51.112;0.984;2023-03-29T05:16:28;20;15;
42410;PMS5003;28056;51.112;0.984;2023-03-29T05:18:55;17;15;
42410;PMS5003;28056;51.112;0.984;2023-03-29T05:21:23;14;13;
42410;PMS5003;28056;51.112;0.984;2023-03-29T05:23:50;19;14;
42410;PMS5003;28056;51.112;0.984;2023-03-29T05:26:18;17;13;
42410;PMS5003;28056;51.112;0.984;2023-03-29T05:28:45;15;15;
42410;PMS5003;28056;51.112;0.984;2023-03-29T05:31:13;20;14;
42410;PMS5003;28056;51.112;0.984;2023-03-29T05:33:41;14;14;
42410;PMS5003;28056;51.112;0.984;2023-03-29T05:36:09;13;13;
42410;PMS5003;28056;51.112;0.984;2023-03-29T05:38:38;13;13;
42410;PMS5003;28056;51.112;0.984;2023-03-29T05:41:06;11;11;
42410;PMS5003;28056;51.112;0.984;2023-03-29T05:43:33;20;15;
42410;PMS5003;28056;51.112;0.984;2023-03-29T05:46:01;12;12;
42410;PMS5003;28056;51.112;0.984;2023-03-29T05:48:29;9;9;
42410;PMS5003;28056;51.112;0.984;2023-03-29T05:50:56;12;8;
42410;PMS5003;28056;51.112;0.984;2023-03-29T05:53:24;18;11;
42410;PMS5003;28056;51.112;0.984;2023-03-29T05:55:52;19;15;
42410;PMS5003;28056;51.112;0.984;2023-03-29T05:58:20;10;10;
42410;PMS5003;28056;51.112;0.984;2023-03-29T06:00:48;22;18;
42410;PMS5003;28056;51.112;0.984;2023-03-29T06:03:17;19;19;
42410;PMS5003;28056;51.112;0.984;2023-03-29T06:05:45;14;12;
42410;PMS5003;28056;51.112;0.984;2023-03-29T06:08:14;24;18;
42410;PMS5003;28056;51.112;0.984;2023-03-29T06:10:42;10;9;
42410;PMS5003;28056;51.112;0.984;2023-03-29T06:13:09;15;13;
42410;PMS5003;28056;51.112;0.984;2023-03-29T06:15:36;18;17;
42410;PMS5003;28056;51.112;0.984;2023-03-29T06:18:03;14;12;
42410;PMS5003;28056;51.112;0.984;2023-03-29T06:20:31;14;14;
42410;PMS5003;28056;51.112;0.984;2023-03-29T06:23:00;13;10;
42410;PMS5003;28056;51.112;0.984;2023-03-29T06:25:28;14;13;
42410;PMS5003;28056;51.112;0.984;2023-03-29T06:27:55;20;16;
42410;PMS5003;28056;51.112;0.984;2023-03-29T06:30:22;17;13;
42410;PMS5003;28056;51.112;0.984;2023-03-29T06:32:49;14;14;
42410;PMS5003;28056;51.112;0.984;2023-03-29T06:35:17;14;12;
42410;PMS5003;28056;51.112;0.984;2023-03-29T06:37:44;15;15;
42410;PMS5003;28056;51.112;0.984;2023-03-29T06:40:12;19;17;
42410;PMS5003;28056;51.112;0.984;2023-03-29T06:42:39;13;12;
42410;PMS5003;28056;51.112;0.984;2023-03-29T06:45:06;17;14;
42410;PMS5003;28056;51.112;0.984;2023-03-29T06:47:35;9;7;
42410;PMS5003;28056;51.112;0.984;2023-03-29T06:50:03;7;7;
42410;PMS5003;28056;51.112;0.984;2023-03-29T06:52:30;9;9;
42410;PMS5003;28056;51.112;0.984;2023-03-29T06:54:58;12;8;
42410;PMS5003;28056;51.112;0.984;2023-03-29T06:57:25;12;8;
42410;PMS5003;28056;51.112;0.984;2023-03-29T06:59:52;8;8;
42410;PMS5003;28056;51.112;0.984;2023-03-29T07:02:20;17;13;
42410;PMS5003;28056;51.112;0.984;2023-03-29T07:04:47;15;13;
42410;PMS5003;28056;51.112;0.984;2023-03-29T07:07:15;27;25;
42410;PMS5003;28056;51.112;0.984;2023-03-29T07:09:42;20;20;
42410;PMS5003;28056;51.112;0.984;2023-03-29T07:12:10;27;20;
42410;PMS5003;28056;51.112;0.984;2023-03-29T07:14:38;21;21;
42410;PMS5003;28056;51.112;0.984;2023-03-29T07:17:06;15;14;
42410;PMS5003;28056;51.112;0.984;2023-03-29T07:19:33;12;10;
42410;PMS5003;28056;51.112;0.984;2023-03-29T07:22:01;6;6;
42410;PMS5003;28056;51.112;0.984;2023-03-29T07:24:29;12;9;
42410;PMS5003;28056;51.112;0.984;2023-03-29T07:26:56;13;9;
42410;PMS5003;28056;51.112;0.984;2023-03-29T07:29:23;13;10;
42410;PMS5003;28056;51.112;0.984;2023-03-29T07:31:51;8;8;
42410;PMS5003;28056;51.112;0.984;2023-03-29T07:34:18;8;8;
42410;PMS5003;28056;51.112;0.984;2023-03-29T07:36:45;7;7;
42410;PMS5003;28056;51.112;0.984;2023-03-29T07:39:12;14;10;
42410;PMS5003;28056;51.112;0.984;2023-03-29T07:41:41;9;9;
42410;PMS5003;28056;51.112;0.984;2023-03-29T07:44:08;12;8;
42410;PMS5003;28056;51.112;0.984;2023-03-29T07:46:35;10;8;
42410;PMS5003;28056;51.112;0.984;2023-03-29T07:49:03;9;9;
42410;PMS5003;28056;51.112;0.984;2023-03-29T07:51:30;10;7;
42410;PMS5003;28056;51.112;0.984;2023-03-29T07:53:58;10;6;
42410;PMS5003;28056;51.112;0.984;2023-03-29T07:56:25;8;8;
42410;PMS5003;28056;51.112;0.984;2023-03-29T07:58:52;9;8;
42410;PMS5003;28056;51.112;0.984;2023-03-29T08:01:20;7;7;
42410;PMS5003;28056;51.112;0.984;2023-03-29T08:03:47;9;8;
42410;PMS5003;28056;51.112;0.984;2023-03-29T08:06:15;12;10;
42410;PMS5003;28056;51.112;0.984;2023-03-29T08:08:42;11;11;
42410;PMS5003;28056;51.112;0.984;2023-03-29T08:11:10;17;13;
42410;PMS5003;28056;51.112;0.984;2023-03-29T08:13:37;20;15;
42410;PMS5003;28056;51.112;0.984;2023-03-29T08:16:05;15;13;
42410;PMS5003;28056;51.112;0.984;2023-03-29T08:18:33;39;28;
42410;PMS5003;28056;51.112;0.984;2023-03-29T08:21:00;25;20;
42410;PMS5003;28056;51.112;0.984;2023-03-29T08:23:28;74;55;
42410;PMS5003;28056;51.112;0.984;2023-03-29T08:25:55;7;7;
42410;PMS5003;28056;51.112;0.984;2023-03-29T08:28:23;36;27;
42410;PMS5003;28056;51.112;0.984;2023-03-29T08:30:50;21;16;
42410;PMS5003;28056;51.112;0.984;2023-03-29T08:33:18;40;28;
42410;PMS5003;28056;51.112;0.984;2023-03-29T08:35:46;16;12;
42410;PMS5003;28056;51.112;0.984;2023-03-29T08:38:13;38;30;
42410;PMS5003;28056;51.112;0.984;2023-03-29T08:40:41;19;19;
42410;PMS5003;28056;51.112;0.984;2023-03-29T08:43:13;44;34;
42410;PMS5003;28056;51.112;0.984;2023-03-29T08:45:52;26;19;
42410;PMS5003;28056;51.112;0.984;2023-03-29T08:48:28;27;24;
42410;PMS5003;28056;51.112;0.984;2023-03-29T08:51:00;15;13;
42410;PMS5003;28056;51.112;0.984;2023-03-29T08:53:32;15;12;
42410;PMS5003;28056;51.112;0.984;2023-03-29T08:56:06;19;16;
42410;PMS5003;28056;51.112;0.984;2023-03-29T08:58:38;14;8;
42410;PMS5003;28056;51.112;0.984;2023-03-29T09:01:05;15;12;
42410;PMS5003;28056;51.112;0.984;2023-03-29T09:03:35;13;12;
42410;PMS5003;28056;51.112;0.984;2023-03-29T09:06:08;9;8;
42410;PMS5003;28056;51.112;0.984;2023-03-29T09:08:38;9;7;
42410;PMS5003;28056;51.112;0.984;2023-03-29T09:11:13;9;6;
42410;PMS5003;28056;51.112;0.984;2023-03-29T09:13:51;8;8;
42410;PMS5003;28056;51.112;0.984;2023-03-29T09:16:28;10;8;
42410;PMS5003;28056;51.112;0.984;2023-03-29T09:19:04;12;10;
42410;PMS5003;28056;51.112;0.984;2023-03-29T09:21:42;14;12;
42410;PMS5003;28056;51.112;0.984;2023-03-29T09:24:36;14;13;
42410;PMS5003;28056;51.112;0.984;2023-03-29T09:27:16;14;10;
42410;PMS5003;28056;51.112;0.984;2023-03-29T09:29:51;13;10;
42410;PMS5003;28056;51.112;0.984;2023-03-29T09:32:29;12;10;
42410;PMS5003;28056;51.112;0.984;2023-03-29T09:35:02;15;13;
42410;PMS5003;28056;51.112;0.984;2023-03-29T09:37:39;15;14;
42410;PMS5003;28056;51.112;0.984;2023-03-29T09:40:09;14;13;
42410;PMS5003;28056;51.112;0.984;2023-03-29T09:42:40;20;19;
42410;PMS5003;28056;51.112;0.984;2023-03-29T09:45:10;10;10;
42410;PMS5003;28056;51.112;0.984;2023-03-29T09:47:37;13;13;
42410;PMS5003;28056;51.112;0.984;2023-03-29T09:50:09;9;9;
42410;PMS5003;28056;51.112;0.984;2023-03-29T09:52:41;14;13;
42410;PMS5003;28056;51.112;0.984;2023-03-29T09:55:11;13;13;
42410;PMS5003;28056;51.112;0.984;2023-03-29T09:57:39;14;13;
42410;PMS5003;28056;51.112;0.984;2023-03-29T10:00:09;14;13;
42410;PMS5003;28056;51.112;0.984;2023-03-29T10:02:37;9;9;
42410;PMS5003;28056;51.112;0.984;2023-03-29T10:05:05;12;10;
42410;PMS5003;28056;51.112;0.984;2023-03-29T10:07:36;12;10;
42410;PMS5003;28056;51.112;0.984;2023-03-29T10:10:06;10;10;
42410;PMS5003;28056;51.112;0.984;2023-03-29T10:12:34;12;12;
42410;PMS5003;28056;51.112;0.984;2023-03-29T10:15:02;13;13;
42410;PMS5003;28056;51.112;0.984;2023-03-29T10:17:36;13;13;
42410;PMS5003;28056;51.112;0.984;2023-03-29T10:20:09;16;16;
42410;PMS5003;28056;51.112;0.984;2023-03-29T10:22:44;15;13;
42410;PMS5003;28056;51.112;0.984;2023-03-29T10:25:13;14;14;
42410;PMS5003;28056;51.112;0.984;2023-03-29T10:27:42;16;16;
42410;PMS5003;28056;51.112;0.984;2023-03-29T10:30:17;20;19;
42410;PMS5003;28056;51.112;0.984;2023-03-29T10:32:50;13;13;
42410;PMS5003;28056;51.112;0.984;2023-03-29T10:35:22;16;14;
42410;PMS5003;28056;51.112;0.984;2023-03-29T10:37:54;16;15;
42410;PMS5003;28056;51.112;0.984;2023-03-29T10:40:25;16;16;
42410;PMS5003;28056;51.112;0.984;2023-03-29T10:42:58;13;13;
42410;PMS5003;28056;51.112;0.984;2023-03-29T10:45:27;14;14;
42410;PMS5003;28056;51.112;0.984;2023-03-29T10:47:56;21;14;
42410;PMS5003;28056;51.112;0.984;2023-03-29T10:50:24;15;13;
42410;PMS5003;28056;51.112;0.984;2023-03-29T10:52:58;24;15;
42410;PMS5003;28056;51.112;0.984;2023-03-29T10:55:33;31;22;
42410;PMS5003;28056;51.112;0.984;2023-03-29T10:58:15;42;34;
42410;PMS5003;28056;51.112;0.984;2023-03-29T11:00:54;71;50;
42410;PMS5003;28056;51.112;0.984;2023-03-29T11:03:27;37;31;
42410;PMS5003;28056;51.112;0.984;2023-03-29T11:06:13;36;34;
42410;PMS5003;28056;51.112;0.984;2023-03-29T11:08:52;52;46;
42410;PMS5003;28056;51.112;0.984;2023-03-29T11:11:29;54;43;
42410;PMS5003;28056;51.112;0.984;2023-03-29T11:14:08;28;25;
42410;PMS5003;28056;51.112;0.984;2023-03-29T11:16:43;28;28;
42410;PMS5003;28056;51.112;0.984;2023-03-29T11:19:20;33;33;
42410;PMS5003;28056;51.112;0.984;2023-03-29T11:22:05;27;26;
42410;PMS5003;28056;51.112;0.984;2023-03-29T11:24:43;28;24;
42410;PMS5003;28056;51.112;0.984;2023-03-29T11:27:26;38;33;
42410;PMS5003;28056;51.112;0.984;2023-03-29T11:30:04;20;20;
42410;PMS5003;28056;51.112;0.984;2023-03-29T11:32:38;18;16;
42410;PMS5003;28056;51.112;0.984;2023-03-29T11:35:20;19;19;
42410;PMS5003;28056;51.112;0.984;2023-03-29T11:37:59;16;15;
42410;PMS5003;28056;51.112;0.984;2023-03-29T11:40:34;20;17;
42410;PMS5003;28056;51.112;0.984;2023-03-29T11:43:11;15;15;
42410;PMS5003;28056;51.112;0.984;2023-03-29T11:45:47;15;15;
42410;PMS5003;28056;51.112;0.984;2023-03-29T11:48:19;20;16;
42410;PMS5003;28056;51.112;0.984;2023-03-29T11:50:51;16;16;
42410;PMS5003;28056;51.112;0.984;2023-03-29T11:53:24;20;17;
42410;PMS5003;28056;51.112;0.984;2023-03-29T11:55:56;14;13;
42410;PMS5003;28056;51.112;0.984;2023-03-29T11:58:34;15;13;
42410;PMS5003;28056;51.112;0.984;2023-03-29T12:01:05;20;17;
42410;PMS5003;28056;51.112;0.984;2023-03-29T12:03:37;19;15;
42410;PMS5003;28056;51.112;0.984;2023-03-29T12:06:11;22;19;
42410;PMS5003;28056;51.112;0.984;2023-03-29T12:08:43;17;15;
42410;PMS5003;28056;51.112;0.984;2023-03-29T12:11:18;18;18;
42410;PMS5003;28056;51.112;0.984;2023-03-29T12:13:54;21;16;
42410;PMS5003;28056;51.112;0.984;2023-03-29T12:16:28;14;14;
42410;PMS5003;28056;51.112;0.984;2023-03-29T12:19:01;15;14;
42410;PMS5003;28056;51.112;0.984;2023-03-29T12:21:32;17;14;
42410;PMS5003;28056;51.112;0.984;2023-03-29T12:24:01;16;14;
42410;PMS5003;28056;51.112;0.984;2023-03-29T12:26:33;17;15;
42410;PMS5003;28056;51.112;0.984;2023-03-29T12:29:16;21;17;
42410;PMS5003;28056;51.112;0.984;2023-03-29T12:31:56;15;15;
42410;PMS5003;28056;51.112;0.984;2023-03-29T12:34:33;15;13;
42410;PMS5003;28056;51.112;0.984;2023-03-29T12:37:18;14;13;
42410;PMS5003;28056;51.112;0.984;2023-03-29T12:40:00;21;14;
42410;PMS5003;28056;51.112;0.984;2023-03-29T12:42:42;11;11;
42410;PMS5003;28056;51.112;0.984;2023-03-29T12:45:13;18;15;
42410;PMS5003;28056;51.112;0.984;2023-03-29T12:47:45;22;17;
42410;PMS5003;28056;51.112;0.984;2023-03-29T12:50:21;15;12;
42410;PMS5003;28056;51.112;0.984;2023-03-29T12:52:52;14;12;
42410;PMS5003;28056;51.112;0.984;2023-03-29T12:55:29;12;11;
42410;PMS5003;28056;51.112;0.984;2023-03-29T12:58:00;17;14;
42410;PMS5003;28056;51.112;0.984;2023-03-29T13:00:31;18;16;
42410;PMS5003;28056;51.112;0.984;2023-03-29T13:03:19;12;11;
42410;PMS5003;28056;51.112;0.984;2023-03-29T13:06:02;15;11;
42410;PMS5003;28056;51.112;0.984;2023-03-29T13:08:32;12;11;
42410;PMS5003;28056;51.112;0.984;2023-03-29T13:11:02;13;13;
42410;PMS5003;28056;51.112;0.984;2023-03-29T13:13:32;16;16;
42410;PMS5003;28056;51.112;0.984;2023-03-29T13:16:17;17;14;
42410;PMS5003;28056;51.112;0.984;2023-03-29T13:18:50;17;14;
42410;PMS5003;28056;51.112;0.984;2023-03-29T13:21:31;14;14;
42410;PMS5003;28056;51.112;0.984;2023-03-29T13:24:12;17;17;
42410;PMS5003;28056;51.112;0.984;2023-03-29T13:26:57;17;13;
42410;PMS5003;28056;51.112;0.984;2023-03-29T13:29:35;14;10;
42410;PMS5003;28056;51.112;0.984;2023-03-29T13:32:15;18;17;
42410;PMS5003;28056;51.112;0.984;2023-03-29T13:34:55;15;14;
42410;PMS5003;28056;51.112;0.984;2023-03-29T13:37:32;12;10;
42410;PMS5003;28056;51.112;0.984;2023-03-29T13:40:24;18;15;
42410;PMS5003;28056;51.112;0.984;2023-03-29T13:42:56;14;14;
42410;PMS5003;28056;51.112;0.984;2023-03-29T13:45:26;13;12;
42410;PMS5003;28056;51.112;0.984;2023-03-29T13:48:00;15;13;
42410;PMS5003;28056;51.112;0.984;2023-03-29T13:50:33;15;14;
42410;PMS5003;28056;51.112;0.984;2023-03-29T13:53:06;18;14;
42410;PMS5003;28056;51.112;0.984;2023-03-29T13:55:41;12;12;
42410;PMS5003;28056;51.112;0.984;2023-03-29T13:58:13;12;10;
42410;PMS5003;28056;51.112;0.984;2023-03-29T14:00:51;11;10;
42410;PMS5003;28056;51.112;0.984;2023-03-29T14:03:25;14;13;
42410;PMS5003;28056;51.112;0.984;2023-03-29T14:05:56;11;8;
42410;PMS5003;28056;51.112;0.984;2023-03-29T14:08:26;10;8;
42410;PMS5003;28056;51.112;0.984;2023-03-29T14:10:56;15;12;
42410;PMS5003;28056;51.112;0.984;2023-03-29T14:13:28;14;10;
42410;PMS5003;28056;51.112;0.984;2023-03-29T14:15:57;12;10;
42410;PMS5003;28056;51.112;0.984;2023-03-29T14:18:31;10;8;
42410;PMS5003;28056;51.112;0.984;2023-03-29T14:21:00;6;6;
42410;PMS5003;28056;51.112;0.984;2023-03-29T14:23:28;9;7;
42410;PMS5003;28056;51.112;0.984;2023-03-29T14:26:04;7;6;
42410;PMS5003;28056;51.112;0.984;2023-03-29T14:28:33;7;6;
42410;PMS5003;28056;51.112;0.984;2023-03-29T14:31:15;7;7;
42410;PMS5003;28056;51.112;0.984;2023-03-29T14:33:43;14;11;
42410;PMS5003;28056;51.112;0.984;2023-03-29T14:36:11;7;7;
42410;PMS5003;28056;51.112;0.984;2023-03-29T14:38:42;9;8;
42410;PMS5003;28056;51.112;0.984;2023-03-29T14:41:15;12;9;
42410;PMS5003;28056;51.112;0.984;2023-03-29T14:43:43;12;12;
42410;PMS5003;28056;51.112;0.984;2023-03-29T14:46:11;10;8;
42410;PMS5003;28056;51.112;0.984;2023-03-29T14:48:43;7;7;
42410;PMS5003;28056;51.112;0.984;2023-03-29T14:51:10;12;12;
42410;PMS5003;28056;51.112;0.984;2023-03-29T14:53:38;9;7;
42410;PMS5003;28056;51.112;0.984;2023-03-29T14:56:07;9;7;
42410;PMS5003;28056;51.112;0.984;2023-03-29T14:58:36;9;9;
42410;PMS5003;28056;51.112;0.984;2023-03-29T15:01:05;12;8;
42410;PMS5003;28056;51.112;0.984;2023-03-29T15:03:41;7;4;
42410;PMS5003;28056;51.112;0.984;2023-03-29T15:06:08;16;14;
42410;PMS5003;28056;51.112;0.984;2023-03-29T15:08:39;15;12;
42410;PMS5003;28056;51.112;0.984;2023-03-29T15:11:10;13;11;
42410;PMS5003;28056;51.112;0.984;2023-03-29T15:13:40;14;11;
42410;PMS5003;28056;51.112;0.984;2023-03-29T15:16:10;11;9;
42410;PMS5003;28056;51.112;0.984;2023-03-29T15:18:40;8;8;
42410;PMS5003;28056;51.112;0.984;2023-03-29T15:21:09;10;10;
42410;PMS5003;28056;51.112;0.984;2023-03-29T15:23:45;10;6;
42410;PMS5003;28056;51.112;0.984;2023-03-29T15:26:19;11;6;
42410;PMS5003;28056;51.112;0.984;2023-03-29T15:28:49;10;6;
42410;PMS5003;28056;51.112;0.984;2023-03-29T15:31:18;11;10;
42410;PMS5003;28056;51.112;0.984;2023-03-29T15:34:00;12;11;
42410;PMS5003;28056;51.112;0.984;2023-03-29T15:36:28;10;6;
42410;PMS5003;28056;51.112;0.984;2023-03-29T15:38:56;5;5;
42410;PMS5003;28056;51.112;0.984;2023-03-29T15:41:23;6;6;
42410;PMS5003;28056;51.112;0.984;2023-03-29T15:43:50;7;6;
42410;PMS5003;28056;51.112;0.984;2023-03-29T15:46:18;9;5;
42410;PMS5003;28056;51.112;0.984;2023-03-29T15:48:46;7;5;
42410;PMS5003;28056;51.112;0.984;2023-03-29T15:51:13;7;6;
42410;PMS5003;28056;51.112;0.984;2023-03-29T15:53:41;12;6;
42410;PMS5003;28056;51.112;0.984;2023-03-29T15:56:12;9;7;
42410;PMS5003;28056;51.112;0.984;2023-03-29T15:58:42;7;7;
42410;PMS5003;28056;51.112;0.984;2023-03-29T16:01:15;6;6;
42410;PMS5003;28056;51.112;0.984;2023-03-29T16:03:47;6;5;
42410;PMS5003;28056;51.112;0.984;2023-03-29T16:06:15;7;6;
42410;PMS5003;28056;51.112;0.984;2023-03-29T16:08:43;7;5;
42410;PMS5003;28056;51.112;0.984;2023-03-29T16:11:10;7;7;
42410;PMS5003;28056;51.112;0.984;2023-03-29T16:13:37;6;6;
42410;PMS5003;28056;51.112;0.984;2023-03-29T16:16:06;6;6;
42410;PMS5003;28056;51.112;0.984;2023-03-29T16:18:36;5;5;
42410;PMS5003;28056;51.112;0.984;2023-03-29T16:21:04;6;5;
42410;PMS5003;28056;51.112;0.984;2023-03-29T16:23:32;6;6;
42410;PMS5003;28056;51.112;0.984;2023-03-29T16:26:00;10;6;
42410;PMS5003;28056;51.112;0.984;2023-03-29T16:28:28;12;11;
42410;PMS5003;28056;51.112;0.984;2023-03-29T16:30:55;9;7;
42410;PMS5003;28056;51.112;0.984;2023-03-29T16:33:22;10;7;
42410;PMS5003;28056;51.112;0.984;2023-03-29T16:35:50;12;7;
42410;PMS5003;28056;51.112;0.984;2023-03-29T16:38:17;9;7;
42410;PMS5003;28056;51.112;0.984;2023-03-29T16:40:45;6;6;
42410;PMS5003;28056;51.112;0.984;2023-03-29T16:43:13;7;5;
42410;PMS5003;28056;51.112;0.984;2023-03-29T16:45:41;11;7;
42410;PMS5003;28056;51.112;0.984;2023-03-29T16:48:10;7;6;
42410;PMS5003;28056;51.112;0.984;2023-03-29T16:50:39;11;8;